Time;durP1;ratioP1;P1;durP2;ratioP2;P2;SDS_P1;SDS_P2;PMS_P1;PMS_P2;Temp;Humidity;BMP_temperature;BMP_pressure;BME280_temperature;BME280_humidity;BME280_pressure;Samples;Min_cycle;Max_cycle;Signal;HPM_P1;HPM_P2
2021/08/26 00:06:21;;;;;;;6.97;3.20;;;;;;;23.54;52.87;101564.06;5033906;28;20074;-71
2021/08/26 00:08:50;;;;;;;6.15;3.00;;;;;;;23.48;53.01;101562.97;5032954;28;20159;-71
2021/08/26 00:11:21;;;;;;;5.15;3.45;;;;;;;23.43;53.11;101545.94;5034222;28;20517;-71
2021/08/26 00:13:46;;;;;;;6.97;3.75;;;;;;;23.47;52.92;101552.50;5032642;28;20091;-71
2021/08/26 00:16:12;;;;;;;6.32;3.50;;;;;;;23.46;53.06;101546.38;5040469;28;20687;-71
2021/08/26 00:18:40;;;;;;;7.75;3.67;;;;;;;23.39;53.22;101534.03;5073384;28;20044;-71
2021/08/26 00:21:06;;;;;;;6.55;3.53;;;;;;;23.40;53.11;101525.88;5072560;28;20102;-71
2021/08/26 00:23:32;;;;;;;6.00;3.55;;;;;;;23.40;53.19;101533.03;5075017;28;21524;-71
2021/08/26 00:25:58;;;;;;;9.07;4.18;;;;;;;23.35;53.10;101530.94;5058093;28;20355;-71
2021/08/26 00:28:23;;;;;;;6.88;3.25;;;;;;;23.33;53.27;101529.44;5073732;28;20056;-69
2021/08/26 00:30:49;;;;;;;6.05;3.42;;;;;;;23.40;52.97;101538.34;5078646;28;20032;-70
2021/08/26 00:33:15;;;;;;;8.27;4.07;;;;;;;23.40;53.28;101541.00;5059863;28;20037;-72
2021/08/26 00:35:41;;;;;;;6.88;3.60;;;;;;;23.40;53.07;101538.34;5062228;28;20040;-71
2021/08/26 00:38:06;;;;;;;5.95;3.28;;;;;;;23.28;53.20;101522.03;5076205;28;20043;-70
2021/08/26 00:40:32;;;;;;;7.30;3.53;;;;;;;23.34;53.18;101529.28;5077248;28;20101;-72
2021/08/26 00:42:59;;;;;;;6.78;3.40;;;;;;;23.32;53.31;101533.09;5063165;28;20095;-70
2021/08/26 00:45:25;;;;;;;7.03;3.38;;;;;;;23.35;53.28;101530.09;5079183;28;20051;-70
2021/08/26 00:47:51;;;;;;;6.90;4.22;;;;;;;23.30;53.35;101524.50;5076239;28;20481;-70
2021/08/26 00:50:17;;;;;;;5.50;3.08;;;;;;;23.35;53.13;101527.44;5078021;28;20055;-70
2021/08/26 00:52:46;;;;;;;6.43;3.38;;;;;;;23.32;53.25;101519.81;5071938;28;20101;-71
2021/08/26 00:55:13;;;;;;;8.40;3.72;;;;;;;23.30;53.46;101527.97;5076048;28;20036;-70
2021/08/26 00:57:38;;;;;;;6.78;3.38;;;;;;;23.29;53.22;101525.50;5059839;28;20039;-70
2021/08/26 01:00:09;;;;;;;7.20;3.85;;;;;;;23.31;53.00;101523.50;5075965;28;20044;-72
2021/08/26 01:03:08;;;;;;;8.63;4.25;;;;;;;23.32;52.96;101523.31;5091381;28;20123;-70
2021/08/26 01:05:54;;;;;;;5.80;3.10;;;;;;;23.32;53.05;101525.13;5053438;28;20052;-70
2021/08/26 01:08:27;;;;;;;5.82;3.47;;;;;;;23.28;53.16;101522.03;5059335;28;20048;-70
2021/08/26 01:10:56;;;;;;;7.07;3.35;;;;;;;23.23;53.04;101510.31;5076163;28;20425;-70
2021/08/26 01:13:24;;;;;;;9.10;3.65;;;;;;;23.18;53.64;101505.56;5092166;28;20044;-70
2021/08/26 01:16:02;;;;;;;7.68;3.72;;;;;;;23.26;53.36;101510.75;5059999;28;20047;-69
2021/08/26 01:18:27;;;;;;;7.50;3.72;;;;;;;23.23;53.21;101507.66;5072443;28;20036;-70
2021/08/26 01:20:53;;;;;;;8.25;3.70;;;;;;;23.13;53.37;101476.88;5077262;28;20036;-72
2021/08/26 01:23:19;;;;;;;6.32;3.65;;;;;;;23.20;53.10;101488.44;5079693;28;20046;-70
2021/08/26 01:25:47;;;;;;;8.07;3.50;;;;;;;23.24;53.26;101496.84;5059447;28;20114;-72
2021/08/26 01:28:13;;;;;;;7.15;3.55;;;;;;;23.13;53.20;101476.88;5067931;28;20508;-72
2021/08/26 01:30:42;;;;;;;6.40;3.33;;;;;;;23.17;53.09;101490.63;5069924;28;20033;-70
2021/08/26 01:33:09;;;;;;;8.40;4.30;;;;;;;23.18;53.20;101508.22;5080090;28;20126;-70
2021/08/26 01:35:35;;;;;;;6.60;3.40;;;;;;;23.13;53.05;101495.47;5076470;28;20032;-72
2021/08/26 01:38:01;;;;;;;6.80;3.53;;;;;;;23.20;53.19;101498.25;5077816;28;20592;-70
2021/08/26 01:40:40;;;;;;;5.78;3.22;;;;;;;23.17;53.20;101493.28;5078575;28;20031;-70
2021/08/26 01:43:12;;;;;;;6.90;4.00;;;;;;;23.10;53.22;101481.75;5075632;28;20040;-72
2021/08/26 01:45:39;;;;;;;7.90;3.53;;;;;;;23.14;53.12;101485.69;5071839;28;20494;-72
2021/08/26 01:48:04;;;;;;;8.02;3.50;;;;;;;23.20;53.15;101484.94;5076696;28;20393;-71
2021/08/26 01:50:30;;;;;;;7.45;3.85;;;;;;;23.20;53.21;101491.09;5075245;28;20033;-72
2021/08/26 01:52:55;;;;;;;8.43;3.63;;;;;;;23.19;53.15;101484.13;5055034;28;20607;-71
2021/08/26 01:55:23;;;;;;;6.80;3.45;;;;;;;23.18;53.31;101486.97;5072186;28;20577;-72
2021/08/26 01:57:48;;;;;;;6.32;3.28;;;;;;;23.16;53.00;101486.31;5073836;28;20036;-71
2021/08/26 02:00:14;;;;;;;7.07;3.60;;;;;;;23.15;53.32;101480.16;5057501;28;20020;-71
2021/08/26 02:02:40;;;;;;;7.97;3.70;;;;;;;23.12;53.32;101477.88;5074274;28;20119;-72
2021/08/26 02:05:06;;;;;;;6.55;3.13;;;;;;;23.17;53.46;101477.34;5075462;28;20123;-72
2021/08/26 02:07:31;;;;;;;7.03;3.47;;;;;;;23.11;53.33;101472.75;5088429;28;20127;-71
2021/08/26 02:09:57;;;;;;;6.63;3.47;;;;;;;22.92;53.55;101434.31;5079465;28;20043;-71
2021/08/26 02:12:23;;;;;;;5.60;3.25;;;;;;;23.09;53.45;101469.47;5076371;28;20043;-72
2021/08/26 02:14:49;;;;;;;7.18;3.47;;;;;;;23.09;53.42;101461.50;5055382;28;20067;-72
2021/08/26 02:17:14;;;;;;;5.30;3.13;;;;;;;23.05;53.61;101463.72;5075599;28;20071;-71
2021/08/26 02:19:40;;;;;;;6.10;3.45;;;;;;;23.10;53.30;101450.69;5072665;28;20048;-72
2021/08/26 02:22:06;;;;;;;6.22;3.38;;;;;;;23.09;53.28;101456.19;5072877;28;20143;-71
2021/08/26 02:24:32;;;;;;;7.13;3.25;;;;;;;23.07;53.39;101455.56;5072352;28;20029;-72
2021/08/26 02:26:58;;;;;;;5.18;3.53;;;;;;;23.03;53.45;101447.16;5059831;28;20443;-71
2021/08/26 02:29:24;;;;;;;5.28;3.20;;;;;;;23.09;53.37;101450.88;5073726;28;20048;-72
2021/08/26 02:31:50;;;;;;;5.45;3.17;;;;;;;22.98;53.28;101441.56;5085926;28;20099;-71
2021/08/26 02:34:16;;;;;;;5.57;3.47;;;;;;;23.06;53.38;101459.22;5057706;28;20043;-72
2021/08/26 02:36:41;;;;;;;5.28;2.95;;;;;;;23.03;53.69;101447.16;5071023;28;20040;-71
2021/08/26 02:39:08;;;;;;;7.63;3.47;;;;;;;23.05;53.71;101453.09;5076497;28;20112;-71
2021/08/26 02:41:35;;;;;;;8.00;2.80;;;;;;;22.78;53.69;101412.06;5072834;28;20379;-72
2021/08/26 02:44:00;;;;;;;4.95;3.20;;;;;;;22.99;53.72;101453.03;5077237;28;20138;-71
2021/08/26 02:46:26;;;;;;;6.35;2.78;;;;;;;23.01;53.66;101446.50;5075624;28;20047;-72
2021/08/26 02:48:52;;;;;;;6.78;3.17;;;;;;;23.01;53.29;101441.19;5054120;28;20037;-72
2021/08/26 02:51:17;;;;;;;8.13;3.67;;;;;;;23.01;53.68;101440.38;5075029;28;20040;-71
2021/08/26 02:53:43;;;;;;;5.90;2.80;;;;;;;23.01;53.66;101438.53;5076531;28;20039;-71
2021/08/26 02:56:08;;;;;;;3.72;2.85;;;;;;;22.97;53.45;101434.59;5079102;28;20027;-71
2021/08/26 02:58:34;;;;;;;5.40;3.08;;;;;;;23.02;53.48;101440.19;5053086;28;20391;-71
2021/08/26 03:00:59;;;;;;;7.18;3.47;;;;;;;23.04;53.46;101434.69;5077164;28;20504;-71
2021/08/26 03:03:25;;;;;;;5.85;3.38;;;;;;;23.01;53.74;101443.03;5074752;28;20101;-72
2021/08/26 03:05:50;;;;;;;6.50;3.30;;;;;;;22.86;53.63;101417.31;5075101;28;20032;-72
2021/08/26 03:08:17;;;;;;;6.25;2.75;;;;;;;22.98;53.61;101432.75;5075131;28;20123;-71
2021/08/26 03:10:42;;;;;;;9.02;3.92;;;;;;;22.97;53.75;101431.94;5073213;28;20055;-71
2021/08/26 03:13:08;;;;;;;5.45;3.08;;;;;;;22.90;53.35;101413.28;5072368;28;20401;-71
2021/08/26 03:15:34;;;;;;;5.43;2.80;;;;;;;22.90;53.59;101421.25;5054892;28;20547;-72
2021/08/26 03:17:59;;;;;;;6.30;3.22;;;;;;;22.99;53.29;101424.63;5056300;28;20063;-72
2021/08/26 03:20:25;;;;;;;5.55;3.20;;;;;;;22.90;53.65;101426.53;5073664;28;20496;-72
2021/08/26 03:22:52;;;;;;;5.68;3.08;;;;;;;22.89;53.84;101421.44;5056934;28;20555;-71
2021/08/26 03:25:18;;;;;;;5.90;3.17;;;;;;;22.91;53.52;101412.25;5071815;28;20482;-71
2021/08/26 03:27:43;;;;;;;4.35;2.70;;;;;;;22.88;53.81;101419.78;5077978;28;20097;-72
2021/08/26 03:30:09;;;;;;;4.47;2.35;;;;;;;22.89;53.65;101418.78;5055417;28;20036;-71
2021/08/26 03:32:35;;;;;;;5.50;2.90;;;;;;;22.89;53.59;101418.78;5074825;28;20093;-71
2021/08/26 03:35:01;;;;;;;3.75;2.33;;;;;;;22.84;53.89;101415.84;5073313;28;20036;-71
2021/08/26 03:37:26;;;;;;;5.32;2.78;;;;;;;22.94;53.65;101418.22;5074076;28;20044;-71
2021/08/26 03:39:52;;;;;;;4.35;2.70;;;;;;;22.94;53.53;101423.50;5073784;28;20038;-72
2021/08/26 03:42:18;;;;;;;4.10;2.55;;;;;;;22.89;53.92;101421.44;5071427;28;20048;-71
2021/08/26 03:44:44;;;;;;;5.63;2.88;;;;;;;22.92;53.67;101423.72;5072641;28;20036;-71
2021/08/26 03:47:10;;;;;;;5.45;2.90;;;;;;;22.88;53.99;101417.13;5074054;28;20412;-71
2021/08/26 03:49:36;;;;;;;5.65;2.88;;;;;;;22.79;53.85;101404.91;5072230;28;20036;-72
2021/08/26 03:52:03;;;;;;;5.70;2.97;;;;;;;22.86;53.98;101417.31;5076333;28;20040;-71
2021/08/26 03:54:28;;;;;;;5.20;3.35;;;;;;;22.86;53.92;101419.97;5075042;28;20032;-72
2021/08/26 03:56:54;;;;;;;3.60;2.53;;;;;;;22.86;53.67;101416.50;5056207;28;20109;-72
2021/08/26 03:59:19;;;;;;;4.85;2.78;;;;;;;22.85;53.61;101409.53;5073399;28;20032;-71
2021/08/26 04:01:45;;;;;;;4.28;2.45;;;;;;;22.86;53.52;101413.84;5021789;28;20371;-72
2021/08/26 04:04:10;;;;;;;4.22;2.90;;;;;;;22.92;53.63;101424.53;5080780;28;20032;-72
2021/08/26 04:06:36;;;;;;;4.55;2.22;;;;;;;22.87;53.73;101426.94;5078440;28;20655;-72
2021/08/26 04:09:01;;;;;;;4.15;2.70;;;;;;;;;;5080520;28;20040;-72
2021/08/26 04:11:27;;;;;;;3.90;2.35;;;;;;;22.83;54.01;101419.53;5074651;28;20139;-72
2021/08/26 04:13:52;;;;;;;2.80;2.22;;;;;;;22.83;54.03;101408.91;5077683;28;20095;-72
2021/08/26 04:16:18;;;;;;;5.82;2.50;;;;;;;22.80;53.87;101411.88;5078808;28;20055;-71
2021/08/26 04:18:43;;;;;;;5.70;2.63;;;;;;;;;;5078755;28;20082;-72
2021/08/26 04:21:09;;;;;;;5.88;2.80;;;;;;;22.79;53.85;101407.56;5075001;28;20087;-71
2021/08/26 04:23:35;;;;;;;6.35;2.80;;;;;;;22.86;53.90;101408.53;5078393;28;20036;-71
2021/08/26 04:26:00;;;;;;;5.05;2.92;;;;;;;22.82;53.99;101402.75;5077381;28;20040;-72
2021/08/26 04:28:26;;;;;;;4.78;2.70;;;;;;;22.85;53.72;101406.88;5077946;28;20036;-72
2021/08/26 04:30:51;;;;;;;4.45;2.60;;;;;;;22.83;53.95;101403.59;5077443;28;20466;-71
2021/08/26 04:33:17;;;;;;;7.03;2.97;;;;;;;22.78;53.67;101401.44;5079440;28;20064;-71
2021/08/26 04:35:42;;;;;;;4.18;2.60;;;;;;;22.80;53.70;101407.41;5079352;28;20041;-71
2021/08/26 04:38:09;;;;;;;4.78;2.70;;;;;;;22.78;53.70;101404.09;5072436;28;20041;-71
2021/08/26 04:40:36;;;;;;;5.22;2.65;;;;;;;22.77;54.15;101412.25;5072758;28;20082;-72
2021/08/26 04:43:01;;;;;;;5.10;2.60;;;;;;;22.77;54.01;101414.91;5058536;28;20060;-71
2021/08/26 04:45:27;;;;;;;6.15;2.60;;;;;;;22.80;54.04;101411.88;5074817;28;20059;-71
2021/08/26 04:47:53;;;;;;;4.07;2.40;;;;;;;22.73;54.15;101408.31;5060588;28;20044;-71
2021/08/26 04:50:19;;;;;;;3.85;2.60;;;;;;;22.72;54.05;101399.53;5077974;28;20032;-72
2021/08/26 04:52:45;;;;;;;6.90;2.63;;;;;;;22.75;53.97;101404.47;5043742;28;20051;-71
2021/08/26 04:55:10;;;;;;;4.45;2.30;;;;;;;22.76;53.90;101413.25;5076901;28;20043;-72
2021/08/26 04:57:36;;;;;;;4.72;2.33;;;;;;;22.76;53.90;101416.72;5078293;28;20072;-71
2021/08/26 05:00:04;;;;;;;4.95;2.80;;;;;;;22.76;54.25;101408.75;5075597;28;20489;-71
2021/08/26 05:02:29;;;;;;;4.40;2.35;;;;;;;22.75;53.92;101408.94;5074468;28;20473;-71
2021/08/26 05:04:55;;;;;;;7.35;3.10;;;;;;;22.71;54.08;101408.50;5075975;28;20028;-72
2021/08/26 05:07:21;;;;;;;4.45;2.53;;;;;;;22.69;54.19;101415.84;5059507;28;20039;-71
2021/08/26 05:09:47;;;;;;;3.85;2.45;;;;;;;22.62;53.93;101398.97;5076509;28;20099;-72
2021/08/26 05:12:13;;;;;;;4.20;2.63;;;;;;;22.72;54.07;101415.47;5060861;28;20037;-71
2021/08/26 05:14:38;;;;;;;4.88;2.40;;;;;;;22.74;54.18;101418.75;5071210;28;20078;-72
2021/08/26 05:17:04;;;;;;;5.18;2.40;;;;;;;22.70;54.17;101417.47;5075779;28;20102;-71
2021/08/26 05:19:30;;;;;;;4.43;2.78;;;;;;;22.76;54.28;101427.34;5076129;28;20031;-71
2021/08/26 05:21:55;;;;;;;6.57;2.70;;;;;;;22.72;54.01;101419.94;5059558;28;20435;-72
2021/08/26 05:24:21;;;;;;;3.72;2.42;;;;;;;22.71;54.14;101419.13;5077027;28;20055;-72
2021/08/26 05:26:47;;;;;;;4.18;2.50;;;;;;;22.76;54.01;101421.22;5057570;28;20535;-71
2021/08/26 05:29:14;;;;;;;3.65;2.60;;;;;;;22.72;53.98;101414.63;5079592;28;20107;-69
2021/08/26 05:31:39;;;;;;;4.43;2.60;;;;;;;22.71;54.03;101418.31;5071995;28;20117;-71
2021/08/26 05:34:05;;;;;;;3.65;2.28;;;;;;;22.75;54.39;101415.09;5076618;28;20113;-72
2021/08/26 05:36:30;;;;;;;3.05;2.33;;;;;;;22.68;54.29;101411.53;5060742;28;20128;-72
2021/08/26 05:38:56;;;;;;;4.78;2.58;;;;;;;22.72;54.39;101410.16;5036315;28;20059;-71
2021/08/26 05:41:21;;;;;;;4.22;2.83;;;;;;;22.76;54.12;101413.25;5076084;28;20500;-71
2021/08/26 05:43:47;;;;;;;4.65;2.72;;;;;;;22.74;54.18;101418.75;5074625;28;20043;-72
2021/08/26 05:46:12;;;;;;;5.57;2.55;;;;;;;22.70;54.20;101419.31;5071612;28;20040;-72
2021/08/26 05:48:38;;;;;;;6.90;2.92;;;;;;;22.74;54.22;101426.72;5071846;28;20166;-72
2021/08/26 05:51:03;;;;;;;4.15;2.78;;;;;;;22.72;54.07;101420.78;5085899;28;20032;-72
2021/08/26 05:53:30;;;;;;;3.50;2.42;;;;;;;22.70;54.17;101428.09;5057194;28;20045;-72
2021/08/26 05:55:55;;;;;;;5.22;2.90;;;;;;;22.69;54.25;101422.97;5071497;28;20046;-72
2021/08/26 05:58:21;;;;;;;5.00;2.72;;;;;;;22.68;54.30;101418.69;5072986;28;20031;-72
2021/08/26 06:00:46;;;;;;;5.43;2.83;;;;;;;22.69;54.06;101423.81;5075519;28;20048;-72
2021/08/26 06:03:12;;;;;;;4.78;2.47;;;;;;;22.71;54.28;101424.44;5074888;28;20482;-71
2021/08/26 06:05:38;;;;;;;4.47;2.38;;;;;;;22.70;54.33;101429.94;5077039;28;20044;-72
2021/08/26 06:08:04;;;;;;;6.80;3.08;;;;;;;22.66;54.43;101418.03;5073313;28;20071;-71
2021/08/26 06:10:30;;;;;;;5.07;2.50;;;;;;;22.72;54.28;101430.56;5078881;28;20091;-71
2021/08/26 06:12:55;;;;;;;4.50;2.70;;;;;;;22.34;54.39;101368.81;5074421;28;20043;-71
2021/08/26 06:15:22;;;;;;;4.30;2.63;;;;;;;22.62;54.25;101422.88;5050542;28;20032;-71
2021/08/26 06:17:47;;;;;;;4.25;2.72;;;;;;;22.70;54.12;101436.06;5074752;28;20387;-72
2021/08/26 06:20:15;;;;;;;4.32;2.50;;;;;;;22.70;54.25;101430.75;5068548;28;20170;-71
2021/08/26 06:22:42;;;;;;;4.28;2.45;;;;;;;22.70;54.22;101436.06;5071201;28;20040;-71
2021/08/26 06:25:09;;;;;;;4.72;2.63;;;;;;;22.70;54.24;101428.09;5063831;28;20047;-71
2021/08/26 06:27:35;;;;;;;3.08;2.25;;;;;;;22.68;54.33;101442.56;5065834;28;20040;-71
2021/08/26 06:30:01;;;;;;;6.35;3.03;;;;;;;22.69;54.23;101438.91;5062776;28;20048;-72
2021/08/26 06:32:26;;;;;;;5.47;2.65;;;;;;;22.67;54.12;101441.75;5049330;28;20399;-71
2021/08/26 06:34:52;;;;;;;4.90;2.85;;;;;;;22.67;54.28;101436.44;5066557;28;20398;-72
2021/08/26 06:37:17;;;;;;;6.20;3.55;;;;;;;22.71;54.12;101442.19;5078024;28;20040;-72
2021/08/26 06:39:43;;;;;;;5.07;2.75;;;;;;;22.62;54.04;101430.84;5059387;28;20130;-71
2021/08/26 06:42:09;;;;;;;4.15;2.70;;;;;;;22.72;53.96;101436.69;5083290;28;20486;-72
2021/08/26 06:44:34;;;;;;;5.22;2.95;;;;;;;22.80;54.18;101446.38;5057569;28;20479;-72
2021/08/26 06:47:00;;;;;;;6.25;3.05;;;;;;;22.78;54.01;101443.09;5055995;28;20047;-70
2021/08/26 06:49:25;;;;;;;5.55;3.00;;;;;;;22.73;54.03;101434.88;5067630;28;20037;-72
2021/08/26 06:51:51;;;;;;;4.38;2.72;;;;;;;22.78;54.04;101432.47;5070638;28;20094;-72
2021/08/26 06:54:16;;;;;;;7.00;3.35;;;;;;;22.74;53.95;101432.03;5062266;28;20478;-72
2021/08/26 06:56:42;;;;;;;5.63;3.00;;;;;;;22.86;54.09;101451.00;5082362;28;20039;-70
2021/08/26 06:59:08;;;;;;;4.68;2.88;;;;;;;22.87;54.13;101456.13;5075878;28;20037;-70
2021/08/26 07:01:33;;;;;;;7.28;2.75;;;;;;;22.89;54.03;101447.97;5058974;28;20375;-70
2021/08/26 07:03:59;;;;;;;5.53;2.65;;;;;;;22.95;53.86;101449.06;5073507;28;20044;-70
2021/08/26 07:06:26;;;;;;;5.85;3.00;;;;;;;22.97;53.92;101444.38;5075310;28;20052;-71
2021/08/26 07:08:52;;;;;;;8.50;3.17;;;;;;;22.97;53.66;101449.69;5074358;28;20040;-70
2021/08/26 07:11:18;;;;;;;4.72;2.78;;;;;;;23.01;53.65;101446.50;5075561;28;20039;-72
2021/08/26 07:13:43;;;;;;;4.32;2.50;;;;;;;23.00;53.60;101438.72;5075542;28;20044;-70
2021/08/26 07:16:09;;;;;;;5.90;3.35;;;;;;;23.06;53.37;101441.47;5057691;28;20085;-70
2021/08/26 07:18:35;;;;;;;5.78;2.95;;;;;;;23.06;53.31;101451.25;5074415;28;20202;-71
2021/08/26 07:21:00;;;;;;;5.82;2.90;;;;;;;23.07;53.57;101443.09;5070408;28;20032;-70
2021/08/26 07:23:26;;;;;;;6.47;3.22;;;;;;;23.10;53.51;101447.22;5071219;28;20775;-71
2021/08/26 07:25:51;;;;;;;6.40;3.25;;;;;;;23.10;53.45;101439.25;5055339;28;20052;-71
2021/08/26 07:28:17;;;;;;;6.10;2.53;;;;;;;23.14;53.27;101433.38;5081943;28;20024;-71
2021/08/26 07:30:42;;;;;;;6.15;3.20;;;;;;;23.11;53.14;101436.41;5054183;28;20031;-71
2021/08/26 07:33:08;;;;;;;5.60;3.50;;;;;;;23.10;53.41;101431.28;5057698;28;20477;-71
2021/08/26 07:35:34;;;;;;;7.47;3.03;;;;;;;23.11;53.35;101428.44;5080334;28;20093;-71
2021/08/26 07:38:00;;;;;;;5.45;2.97;;;;;;;23.19;53.07;101438.13;5074843;28;20048;-72
2021/08/26 07:40:26;;;;;;;5.93;3.35;;;;;;;23.21;53.08;101441.44;5063490;28;20089;-71
2021/08/26 07:42:52;;;;;;;5.47;2.90;;;;;;;23.21;53.11;101436.13;5059276;28;20043;-71
2021/08/26 07:45:18;;;;;;;6.60;3.10;;;;;;;23.22;53.33;101435.09;5097807;28;20044;-71
2021/08/26 07:47:43;;;;;;;5.68;2.97;;;;;;;23.23;53.21;101435.91;5076692;28;20342;-70
2021/08/26 07:50:11;;;;;;;5.10;2.90;;;;;;;23.26;52.91;101436.38;5080420;28;20414;-70
2021/08/26 07:52:37;;;;;;;5.85;3.05;;;;;;;23.25;53.29;101423.28;5070048;28;20064;-71
2021/08/26 07:55:03;;;;;;;6.63;3.03;;;;;;;23.28;52.89;101430.88;5075041;28;20466;-71
2021/08/26 07:57:29;;;;;;;5.47;3.10;;;;;;;23.34;52.80;101430.09;5072589;28;20328;-71
2021/08/26 07:59:55;;;;;;;6.03;3.33;;;;;;;23.30;52.92;101431.50;5054000;28;20097;-71
2021/08/26 08:02:21;;;;;;;7.53;3.45;;;;;;;23.33;52.79;101434.59;5074741;28;20044;-71
2021/08/26 08:04:46;;;;;;;5.35;3.22;;;;;;;23.37;52.68;101435.06;5071334;28;20045;-71
2021/08/26 08:07:12;;;;;;;8.23;3.38;;;;;;;23.33;52.82;101437.25;5071751;28;20040;-70
2021/08/26 08:09:38;;;;;;;7.35;3.58;;;;;;;23.34;52.87;101443.38;5057503;28;20122;-70
2021/08/26 08:12:04;;;;;;;6.78;3.20;;;;;;;23.35;52.74;101440.56;5052093;28;20057;-71
2021/08/26 08:14:30;;;;;;;8.20;3.38;;;;;;;23.32;53.24;101440.91;5080088;28;20066;-71
2021/08/26 08:16:58;;;;;;;7.75;3.20;;;;;;;23.37;52.79;101440.38;5069082;28;20549;-71
2021/08/26 08:19:25;;;;;;;6.47;3.67;;;;;;;23.25;52.74;101416.13;5076688;28;20028;-69
2021/08/26 08:21:51;;;;;;;5.70;3.33;;;;;;;23.38;52.92;101436.72;5073988;28;20036;-69
2021/08/26 08:24:16;;;;;;;9.75;3.58;;;;;;;23.37;52.90;101440.38;5073305;28;20760;-70
2021/08/26 08:26:42;;;;;;;7.30;3.67;;;;;;;23.37;53.00;101438.53;5079202;28;20040;-70
2021/08/26 08:29:07;;;;;;;7.70;3.47;;;;;;;23.41;53.19;101437.16;5073450;28;20028;-69
2021/08/26 08:31:33;;;;;;;7.00;3.40;;;;;;;23.34;53.14;101433.59;5075196;28;20087;-70
2021/08/26 08:34:00;;;;;;;7.60;4.10;;;;;;;23.38;53.20;101437.53;5076262;28;20048;-70
2021/08/26 08:36:26;;;;;;;4.85;2.80;;;;;;;23.41;53.01;101441.63;5071617;28;20498;-70
2021/08/26 08:38:52;;;;;;;9.38;3.78;;;;;;;23.38;52.93;101442.03;5067756;28;20036;-70
2021/08/26 08:41:19;;;;;;;7.47;3.60;;;;;;;23.39;53.19;101449.81;5072829;28;20025;-71
2021/08/26 08:43:45;;;;;;;8.68;3.85;;;;;;;23.39;53.11;101447.16;5074001;28;20440;-70
2021/08/26 08:46:11;;;;;;;7.15;3.55;;;;;;;23.40;53.26;101442.66;5052618;28;20021;-70
2021/08/26 08:48:42;;;;;;;8.43;3.60;;;;;;;23.46;52.76;101447.22;5064654;28;20097;-70
2021/08/26 08:51:09;;;;;;;9.57;3.95;;;;;;;23.38;52.94;101428.72;5067482;28;22466;-70
2021/08/26 08:53:36;;;;;;;7.50;3.03;;;;;;;23.43;53.07;101445.75;5050756;28;20028;-71
2021/08/26 08:56:09;;;;;;;8.63;3.30;;;;;;;23.37;53.28;101438.53;5076187;28;20044;-71
2021/08/26 08:58:41;;;;;;;9.50;3.88;;;;;;;23.43;53.14;101447.59;5072764;28;20121;-71
2021/08/26 09:01:08;;;;;;;10.05;3.97;;;;;;;23.49;52.65;101447.66;5075891;28;20032;-69
2021/08/26 09:03:37;;;;;;;15.18;5.07;;;;;;;23.75;51.96;101451.63;5038688;28;20079;-70
2021/08/26 09:06:03;;;;;;;15.43;4.35;;;;;;;23.87;51.63;101459.88;5066545;28;20043;-69
2021/08/26 09:08:31;;;;;;;14.77;4.25;;;;;;;23.91;51.54;101451.38;5049844;28;20041;-69
2021/08/26 09:11:17;;;;;;;12.95;4.43;;;;;;;24.03;51.02;101448.97;5068267;28;20033;-69
2021/08/26 09:13:45;;;;;;;11.77;4.53;;;;;;;23.99;51.17;101442.41;5069212;28;20043;-70
2021/08/26 09:16:11;;;;;;;12.02;3.78;;;;;;;23.92;52.22;101458.31;5071849;28;20048;-70
2021/08/26 09:18:36;;;;;;;10.95;4.30;;;;;;;23.82;52.51;101449.84;5052621;28;20036;-70
2021/08/26 09:21:05;;;;;;;15.18;4.47;;;;;;;23.82;52.12;101449.84;5069906;28;20588;-70
2021/08/26 09:23:33;;;;;;;12.43;4.00;;;;;;;23.85;52.32;101456.59;5031629;28;20509;-70
2021/08/26 09:26:22;;;;;;;12.07;4.57;;;;;;;23.90;51.96;101459.53;5058575;28;20489;-70
2021/08/26 09:28:49;;;;;;;9.43;3.70;;;;;;;23.86;52.01;101463.56;5048721;28;20037;-70
2021/08/26 09:31:18;;;;;;;13.20;3.80;;;;;;;23.91;52.05;101455.84;5054146;28;20043;-70
2021/08/26 09:34:00;;;;;;;11.03;4.33;;;;;;;23.98;51.75;101459.38;5047942;28;20028;-69
2021/08/26 09:36:38;;;;;;;9.18;3.55;;;;;;;23.94;51.92;101463.44;5073035;28;20449;-70
2021/08/26 09:39:12;;;;;;;9.88;3.75;;;;;;;23.95;51.76;101462.44;5045050;28;20467;-70
2021/08/26 09:41:44;;;;;;;8.20;3.97;;;;;;;23.81;51.80;101430.41;5068611;28;20028;-70
2021/08/26 09:44:17;;;;;;;11.00;3.88;;;;;;;24.02;51.71;101458.81;5046343;28;20044;-70
2021/08/26 09:46:46;;;;;;;8.05;4.28;;;;;;;24.01;51.42;101457.16;5068614;28;20040;-70
2021/08/26 09:49:14;;;;;;;11.43;4.20;;;;;;;24.00;51.39;101452.84;5040496;28;20081;-70
2021/08/26 09:51:40;;;;;;;10.43;4.15;;;;;;;24.02;51.57;101453.47;5075260;28;20032;-70
2021/08/26 09:54:34;;;;;;;10.23;3.60;;;;;;;24.06;51.57;101456.59;5074351;28;20409;-70
2021/08/26 09:57:01;;;;;;;10.43;4.65;;;;;;;24.03;51.59;101462.28;5053944;28;20049;-70
2021/08/26 10:00:04;;;;;;;9.18;3.88;;;;;;;24.06;51.45;101464.59;5047951;28;21721;-70
2021/08/26 10:02:47;;;;;;;8.75;3.65;;;;;;;24.04;51.45;101461.28;5069758;28;20033;-70
2021/08/26 10:05:12;;;;;;;9.52;3.83;;;;;;;24.02;51.61;101463.31;5039691;28;20024;-70
2021/08/26 10:07:39;;;;;;;9.32;3.58;;;;;;;24.06;51.51;101462.75;5067633;28;20406;-70
2021/08/26 10:10:08;;;;;;;9.30;4.18;;;;;;;24.06;51.52;101465.41;5071194;28;20028;-70
2021/08/26 10:12:36;;;;;;;12.13;4.07;;;;;;;24.07;51.40;101469.72;5033994;28;20105;-70
2021/08/26 10:15:03;;;;;;;10.27;3.97;;;;;;;24.05;51.46;101465.56;5070502;28;20040;-70
2021/08/26 10:17:30;;;;;;;8.45;3.85;;;;;;;24.04;51.23;101475.38;5029843;28;20082;-69
2021/08/26 10:19:56;;;;;;;9.75;3.60;;;;;;;24.06;51.24;101472.56;5081165;28;20063;-69
2021/08/26 10:22:21;;;;;;;10.38;3.75;;;;;;;24.06;51.36;101475.22;5050284;28;20048;-70
2021/08/26 10:24:47;;;;;;;8.55;3.58;;;;;;;24.05;51.16;101477.03;5072845;28;20029;-70
2021/08/26 10:27:16;;;;;;;9.30;4.03;;;;;;;24.08;51.28;101484.66;5045799;28;20041;-70
2021/08/26 10:29:47;;;;;;;10.73;4.05;;;;;;;24.07;51.14;101484.84;5083222;28;20118;-70
2021/08/26 10:32:24;;;;;;;12.25;4.20;;;;;;;24.02;51.42;101465.97;5012937;28;20082;-70
2021/08/26 10:35:16;;;;;;;10.38;3.65;;;;;;;24.02;51.18;101471.28;5072177;28;20036;-70
2021/08/26 10:37:43;;;;;;;8.82;4.00;;;;;;;24.16;51.32;101485.53;5053050;28;20168;-69
2021/08/26 10:40:27;;;;;;;9.38;3.60;;;;;;;24.13;51.76;101484.06;5055523;28;20053;-69
2021/08/26 10:42:57;;;;;;;8.88;3.80;;;;;;;24.13;51.78;101484.06;5033589;28;20029;-70
2021/08/26 10:45:30;;;;;;;9.88;4.38;;;;;;;24.10;51.84;101476.47;5068380;28;20478;-69
2021/08/26 10:48:02;;;;;;;12.60;3.85;;;;;;;24.15;52.02;101494.53;5031843;28;20229;-69
2021/08/26 10:50:35;;;;;;;9.60;3.80;;;;;;;24.17;51.87;101482.66;5071804;28;20033;-70
2021/08/26 10:53:13;;;;;;;12.77;3.75;;;;;;;24.15;51.79;101473.25;5049495;28;20155;-69
2021/08/26 10:55:42;;;;;;;10.55;4.45;;;;;;;24.16;51.94;101472.22;5065036;28;20044;-69
2021/08/26 10:58:21;;;;;;;11.15;4.15;;;;;;;24.11;52.12;101476.28;5043190;28;20168;-70
2021/08/26 11:01:00;;;;;;;8.20;4.30;;;;;;;24.11;51.97;101472.81;5062409;28;20013;-70
2021/08/26 11:03:34;;;;;;;10.30;4.43;;;;;;;24.12;51.94;101474.44;5039250;28;20082;-69
2021/08/26 11:06:22;;;;;;;9.95;4.15;;;;;;;24.13;51.98;101478.75;5066278;28;20044;-69
2021/08/26 11:08:53;;;;;;;10.98;3.72;;;;;;;24.16;51.84;101482.88;5046536;28;20047;-69
2021/08/26 11:11:27;;;;;;;12.20;3.92;;;;;;;24.19;51.79;101496.59;5067413;28;20060;-69
2021/08/26 11:14:02;;;;;;;7.25;3.67;;;;;;;24.20;51.52;101494.75;5037081;28;20032;-69
2021/08/26 11:16:27;;;;;;;8.60;3.92;;;;;;;24.20;51.64;101490.25;5071625;28;20064;-70
2021/08/26 11:18:58;;;;;;;7.82;3.67;;;;;;;24.15;51.76;101482.03;5037811;28;20066;-69
2021/08/26 11:21:45;;;;;;;7.97;3.97;;;;;;;24.22;51.53;101498.03;5071967;28;20032;-69
2021/08/26 11:24:18;;;;;;;10.02;3.58;;;;;;;24.25;51.51;101503.00;5038032;28;20044;-69
2021/08/26 11:26:48;;;;;;;9.30;3.80;;;;;;;24.18;51.40;101494.13;5071907;28;20139;-69
2021/08/26 11:29:19;;;;;;;9.93;3.85;;;;;;;24.23;51.48;101499.69;5046636;28;20070;-70
2021/08/26 11:31:54;;;;;;;7.93;3.38;;;;;;;24.22;51.44;101506.84;5066133;28;20111;-69